Time;durP1;ratioP1;P1;durP2;ratioP2;P2;SDS_P1;SDS_P2;PMS_P1;PMS_P2;Temp;Humidity;BMP_temperature;BMP_pressure;BME280_temperature;BME280_humidity;BME280_pressure;Samples;Min_cycle;Max_cycle;Signal;HPM_P1;HPM_P2
2021/05/04 00:00:41;;;;;;;0.28;0.28;;;12.30;57.70;;;15.57;46.10;100113.47;5011695;28;96947;-66
2021/05/04 00:03:10;;;;;;;0.68;0.68;;;12.40;57.70;;;15.62;46.59;100124.03;5013891;28;96944;-67
2021/05/04 00:05:37;;;;;;;4.10;1.58;;;12.40;57.60;;;15.61;46.19;100108.19;5011610;28;97062;-67
2021/05/04 00:08:06;;;;;;;0.10;0.10;;;12.40;57.60;;;15.65;45.97;100126.03;5005454;28;103028;-66
2021/05/04 00:10:34;;;;;;;4.05;1.45;;;12.50;57.60;;;15.68;46.90;100108.34;5011394;28;96910;-66
2021/05/04 00:13:05;;;;;;;0.77;0.70;;;12.40;57.50;;;15.72;46.40;100099.19;5009628;28;97393;-67
2021/05/04 00:15:33;;;;;;;0.35;0.35;;;12.50;57.50;;;15.66;46.76;100081.69;5009028;28;97065;-67
2021/05/04 00:18:01;;;;;;;0.20;0.20;;;12.60;57.50;;;15.66;46.72;100086.31;5011300;28;96783;-67
2021/05/04 00:20:33;;;;;;;0.22;0.22;;;12.50;57.50;;;15.65;46.14;100077.44;5014477;28;96889;-66
2021/05/04 00:23:03;;;;;;;0.10;0.10;;;12.60;57.50;;;15.65;46.08;100074.72;4994587;28;96717;-66
2021/05/04 00:25:31;;;;;;;0.45;0.45;;;12.60;57.50;;;15.65;46.42;100055.03;5008195;28;96996;-67
2021/05/04 00:28:11;;;;;;;0.77;0.68;;;12.60;57.50;;;15.60;46.32;100060.69;5012456;28;96771;-66
2021/05/04 00:30:55;;;;;;;1.08;0.43;;;12.60;57.50;;;15.59;46.69;100053.75;5027698;28;97584;-67
2021/05/04 00:33:23;;;;;;;17.95;0.95;;;12.60;57.60;;;15.59;46.42;100065.31;5009981;28;97113;-66
2021/05/04 00:35:51;;;;;;;0.10;0.10;;;12.60;57.60;;;15.55;46.93;100050.19;5008500;28;97112;-67
2021/05/04 00:38:19;;;;;;;0.00;0.00;;;12.60;57.60;;;15.55;46.88;100037.44;5027372;27;96800;-67
2021/05/04 00:40:47;;;;;;;0.08;0.08;;;12.50;57.80;;;15.47;46.31;100043.81;5009076;28;97223;-67
2021/05/04 00:43:15;;;;;;;0.60;0.40;;;12.60;57.80;;;15.39;46.67;100015.09;5008015;28;96909;-67
2021/05/04 00:45:44;;;;;;;0.40;0.40;;;12.50;57.90;;;15.21;47.10;100005.00;5012571;28;96888;-67
2021/05/04 00:48:12;;;;;;;0.00;0.00;;;12.40;57.90;;;15.05;47.04;100007.69;5007291;28;96952;-67
2021/05/04 00:50:39;;;;;;;0.32;0.10;;;12.30;58.00;;;14.91;47.42;100022.75;5008279;28;96857;-67
2021/05/04 00:53:08;;;;;;;0.17;0.17;;;12.20;58.10;;;14.79;47.71;100020.09;5029220;28;97037;-67
2021/05/04 00:55:36;;;;;;;7.85;1.63;;;12.10;58.30;;;14.63;47.95;100012.00;5007792;28;98010;-66
2021/05/04 00:58:05;;;;;;;0.40;0.40;;;12.00;58.40;;;14.51;48.09;100003.19;5025885;28;96900;-67
2021/05/04 01:00:34;;;;;;;0.10;0.10;;;11.90;58.50;;;14.47;47.90;99997.72;5010037;28;96917;-67
2021/05/04 01:03:08;;;;;;;0.17;0.17;;;11.80;58.60;;;14.42;48.22;99986.38;5011590;28;97830;-66
2021/05/04 01:05:35;;;;;;;0.20;0.20;;;11.80;58.70;;;14.36;48.07;99985.84;5011398;28;97932;-67
2021/05/04 01:08:05;;;;;;;0.17;0.17;;;11.70;58.80;;;14.32;48.17;99984.97;5005584;28;97491;-67
2021/05/04 01:10:33;;;;;;;0.08;0.08;;;11.60;58.90;;;14.26;47.93;99983.66;5011405;28;96825;-67
2021/05/04 01:13:03;;;;;;;2.30;0.85;;;11.50;58.90;;;14.22;48.08;99982.78;5011085;28;96739;-66
2021/05/04 01:15:31;;;;;;;0.30;0.30;;;11.50;59.00;;;14.18;48.01;99976.50;5005890;28;99624;-66
2021/05/04 01:17:59;;;;;;;0.17;0.17;;;11.40;59.00;;;14.15;48.29;99962.94;4976781;28;97710;-66
2021/05/04 01:20:28;;;;;;;0.05;0.05;;;11.40;59.10;;;14.09;48.24;99961.59;5012359;28;96786;-66
2021/05/04 01:22:56;;;;;;;0.20;0.20;;;11.30;59.20;;;14.02;48.00;99951.38;4991301;28;98207;-66
2021/05/04 01:25:24;;;;;;;0.47;0.38;;;11.30;59.20;;;13.90;48.18;99982.97;5010698;28;97833;-66
2021/05/04 01:27:51;;;;;;;5.00;0.50;;;11.20;59.30;;;13.88;48.37;99939.44;5010779;28;96742;-66
2021/05/04 01:30:21;;;;;;;0.10;0.10;;;11.10;59.40;;;13.77;48.16;99941.06;5010260;28;96803;-66
2021/05/04 01:32:48;;;;;;;0.32;0.17;;;11.00;59.40;;;13.63;48.20;99948.72;5011191;28;96871;-66
2021/05/04 01:35:16;;;;;;;2.20;0.75;;;11.00;59.60;;;13.54;48.12;99955.38;5009492;28;97917;-66
2021/05/04 01:37:46;;;;;;;2.30;0.60;;;10.80;59.60;;;13.42;48.84;99945.41;5006665;28;97692;-66
2021/05/04 01:40:17;;;;;;;0.20;0.20;;;10.70;59.80;;;13.33;48.63;99947.41;5009785;28;97054;-66
2021/05/04 01:42:47;;;;;;;0.57;0.57;;;10.60;59.90;;;13.23;48.27;99934.44;5009328;28;97080;-66
2021/05/04 01:45:33;;;;;;;0.22;0.22;;;10.60;60.00;;;13.13;48.81;99936.78;5009625;28;97933;-66
2021/05/04 01:48:04;;;;;;;13.82;1.05;;;10.40;60.10;;;13.03;48.37;99926.50;5009686;28;97514;-65
2021/05/04 01:50:32;;;;;;;0.10;0.10;;;10.30;60.10;;;12.96;48.72;99924.38;5004540;28;97573;-66
2021/05/04 01:52:59;;;;;;;0.90;0.52;;;10.30;60.40;;;12.73;48.87;99928.56;5011573;28;97296;-65
2021/05/04 01:55:29;;;;;;;2.72;1.17;;;10.20;60.50;;;12.67;48.85;99923.78;5009261;28;97938;-66
2021/05/04 01:57:57;;;;;;;0.10;0.10;;;10.10;60.60;;;12.59;48.80;99924.63;5008468;28;97730;-66
2021/05/04 02:00:25;;;;;;;0.20;0.20;;;10.00;60.70;;;12.71;48.61;99917.38;5010681;28;97098;-66
2021/05/04 02:02:54;;;;;;;0.20;0.20;;;9.90;60.80;;;12.67;49.20;99915.72;5010460;28;96750;-65
2021/05/04 02:05:21;;;;;;;0.55;0.55;;;9.80;60.80;;;12.56;48.52;99901.13;5007726;28;99069;-65
2021/05/04 02:07:49;;;;;;;0.20;0.20;;;9.80;61.50;;;12.56;48.75;99906.50;5011367;28;97009;-66
2021/05/04 02:10:17;;;;;;;1.33;0.60;;;9.70;60.90;;;12.53;48.45;99904.47;5010673;28;97123;-65
2021/05/04 02:12:46;;;;;;;0.35;0.28;;;9.70;61.10;;;12.46;48.75;99896.19;5011275;28;96934;-65
2021/05/04 02:15:16;;;;;;;0.20;0.20;;;9.60;61.00;;;12.44;48.64;99891.13;5009428;28;98230;-65
2021/05/04 02:17:44;;;;;;;1.17;0.47;;;9.60;61.10;;;12.39;48.47;99895.97;5007032;28;99510;-65
2021/05/04 02:20:14;;;;;;;0.10;0.10;;;9.50;61.10;;;12.36;48.49;99895.84;5010215;28;96929;-65
2021/05/04 02:22:42;;;;;;;0.20;0.20;;;9.50;61.10;;;12.31;48.62;99877.25;5009255;28;96741;-65
2021/05/04 02:25:13;;;;;;;0.17;0.17;;;9.50;61.30;;;12.27;48.39;99890.56;5009236;28;97219;-66
2021/05/04 02:27:40;;;;;;;2.30;0.88;;;9.40;61.30;;;12.21;48.64;99878.47;5008741;28;97484;-66
2021/05/04 02:30:12;;;;;;;0.10;0.10;;;9.40;61.40;;;12.14;49.16;99888.97;5010334;28;96774;-65
2021/05/04 02:32:39;;;;;;;0.10;0.10;;;9.30;61.40;;;12.16;49.20;99888.63;5005975;28;96962;-65
2021/05/04 02:35:10;;;;;;;0.03;0.03;;;9.30;61.50;;;12.07;49.23;99880.69;5007520;28;96790;-66
2021/05/04 02:37:37;;;;;;;7.35;0.77;;;9.30;61.60;;;12.01;48.85;99867.78;5009410;28;97605;-66
2021/05/04 02:40:07;;;;;;;7.80;0.63;;;9.20;61.60;;;11.98;48.83;99849.66;4993436;28;97224;-65
2021/05/04 02:42:35;;;;;;;0.10;0.10;;;9.20;62.30;;;11.95;48.90;99845.72;5028975;27;96914;-65
2021/05/04 02:45:04;;;;;;;0.20;0.20;;;9.10;61.70;;;11.91;49.29;99842.13;4993436;28;97865;-65
2021/05/04 02:47:33;;;;;;;0.08;0.08;;;9.10;61.70;;;11.80;49.04;99830.25;5010602;28;97070;-65
2021/05/04 02:50:00;;;;;;;0.40;0.40;;;9.00;61.80;;;11.77;48.97;99833.63;5009607;28;96845;-65
2021/05/04 02:52:31;;;;;;;0.10;0.10;;;9.00;61.80;;;11.77;49.48;99824.75;5007495;28;96855;-65
2021/05/04 02:54:59;;;;;;;0.08;0.08;;;9.00;61.90;;;11.76;48.93;99820.50;5007431;28;96941;-65
2021/05/04 02:57:27;;;;;;;0.65;0.32;;;8.90;61.90;;;11.74;49.04;99798.59;5007991;28;97577;-65
2021/05/04 02:59:54;;;;;;;0.30;0.30;;;8.90;62.10;;;11.61;49.78;99805.81;5008216;28;96705;-65
2021/05/04 03:02:22;;;;;;;0.08;0.08;;;8.80;62.00;;;11.52;49.44;99796.25;5006737;28;97901;-66
2021/05/04 03:04:51;;;;;;;16.95;0.47;;;8.80;62.10;;;11.51;49.87;99790.13;5011909;28;96895;-67
2021/05/04 03:07:19;;;;;;;0.05;0.05;;;8.80;62.20;;;11.59;49.57;99770.50;5014179;28;96768;-65
2021/05/04 03:09:46;;;;;;;0.15;0.15;;;8.80;62.10;;;11.59;49.76;99770.50;5013343;28;97245;-65
2021/05/04 03:12:14;;;;;;;0.68;0.47;;;8.80;62.20;;;11.58;49.63;99763.56;5012642;28;97358;-66
2021/05/04 03:14:42;;;;;;;3.90;0.80;;;8.80;62.20;;;11.47;49.89;99748.19;4997208;28;97824;-65
2021/05/04 03:17:09;;;;;;;2.67;0.75;;;8.80;62.30;;;11.42;49.82;99743.81;5012056;28;97381;-66
2021/05/04 03:19:37;;;;;;;0.22;0.22;;;8.70;62.20;;;11.47;49.94;99735.56;5009871;28;96960;-65
2021/05/04 03:22:06;;;;;;;1.65;0.38;;;8.70;62.20;;;11.58;49.16;99717.94;5015836;28;96905;-65
2021/05/04 03:24:34;;;;;;;0.52;0.52;;;8.70;62.30;;;11.51;49.33;99712.31;5013057;28;97014;-65
2021/05/04 03:27:05;;;;;;;2.40;1.35;;;8.70;62.20;;;11.48;49.46;99696.91;5027639;28;97925;-65
2021/05/04 03:29:32;;;;;;;0.15;0.15;;;8.70;62.30;;;11.53;49.48;99703.94;5008712;28;96843;-66
2021/05/04 03:32:00;;;;;;;0.10;0.10;;;8.70;62.40;;;11.55;49.47;99697.16;5011395;28;96747;-66
2021/05/04 03:34:30;;;;;;;0.25;0.20;;;8.60;62.40;;;11.60;48.81;99696.94;5011559;28;96940;-65
2021/05/04 03:36:58;;;;;;;0.75;0.40;;;8.60;62.40;;;11.56;49.56;99685.31;5009622;28;97208;-65
2021/05/04 03:39:26;;;;;;;3.22;0.63;;;8.60;62.40;;;11.53;49.41;99679.78;5013296;28;97205;-66
2021/05/04 03:41:54;;;;;;;9.07;2.05;;;8.60;62.50;;;11.49;49.27;99676.19;5012217;28;96852;-65
2021/05/04 03:44:22;;;;;;;0.57;0.57;;;8.60;62.60;;;11.47;49.38;99671.19;5012944;28;98888;-66
2021/05/04 03:46:50;;;;;;;1.02;0.77;;;8.60;62.60;;;11.46;49.12;99668.81;5010527;28;96831;-66
2021/05/04 03:49:17;;;;;;;0.15;0.15;;;8.60;62.60;;;11.49;49.62;99654.75;5012774;28;97480;-65
2021/05/04 03:51:45;;;;;;;0.10;0.10;;;8.60;62.60;;;11.43;49.32;99653.41;5008002;28;96845;-65
2021/05/04 03:54:13;;;;;;;0.10;0.10;;;8.60;62.60;;;11.42;49.36;99641.91;4991252;28;97011;-65
2021/05/04 03:56:41;;;;;;;0.00;0.00;;;8.60;62.60;;;11.38;49.26;99634.84;5010849;28;97758;-66
2021/05/04 03:59:09;;;;;;;0.43;0.43;;;8.50;62.60;;;11.49;49.54;99623.34;5013399;28;96852;-65
2021/05/04 04:01:37;;;;;;;0.10;0.10;;;8.60;62.60;;;11.51;48.99;99636.41;5010429;28;98069;-66
2021/05/04 04:04:05;;;;;;;0.03;0.03;;;8.60;62.70;;;11.48;49.39;99619.09;4993863;28;97908;-66
2021/05/04 04:06:33;;;;;;;1.85;0.25;;;8.60;62.70;;;11.47;49.51;99633.63;5013112;28;97017;-65
2021/05/04 04:09:03;;;;;;;0.17;0.08;;;8.50;62.70;;;11.46;49.55;99617.88;5010949;28;97233;-66
2021/05/04 04:11:31;;;;;;;0.38;0.38;;;8.50;62.80;;;11.46;49.20;99625.91;5007507;28;96996;-66
2021/05/04 04:14:00;;;;;;;0.17;0.17;;;8.50;62.80;;;11.46;48.95;99599.88;5011583;28;96891;-66
2021/05/04 04:16:29;;;;;;;0.13;0.13;;;8.50;62.70;;;11.42;49.39;99607.03;5010841;28;98107;-65
2021/05/04 04:18:57;;;;;;;0.65;0.65;;;8.50;62.80;;;11.47;49.41;99588.03;5010326;28;97449;-65
2021/05/04 04:21:25;;;;;;;0.20;0.20;;;8.50;62.80;;;11.46;49.01;99594.53;5014088;28;96837;-65
2021/05/04 04:24:02;;;;;;;0.10;0.10;;;8.50;62.80;;;11.48;49.23;99597.66;5014138;28;97836;-65
2021/05/04 04:26:31;;;;;;;2.13;1.23;;;8.50;62.80;;;11.49;49.58;99591.16;5012365;28;96799;-66
2021/05/04 04:29:00;;;;;;;0.00;0.00;;;8.50;62.80;;;11.49;49.48;99591.16;5010528;28;96801;-66
2021/05/04 04:31:30;;;;;;;0.40;0.40;;;8.50;62.80;;;11.49;49.58;99587.69;5011731;28;96956;-66
2021/05/04 04:33:58;;;;;;;0.20;0.20;;;8.50;62.80;;;11.47;49.35;99571.94;5012211;28;97769;-65
2021/05/04 04:36:25;;;;;;;1.48;1.05;;;8.50;63.50;;;11.48;49.41;99588.81;5009962;28;96974;-65
2021/05/04 04:38:53;;;;;;;0.20;0.20;;;8.50;62.80;;;11.50;49.60;99571.28;5010602;28;96847;-66
2021/05/04 04:41:35;;;;;;;0.17;0.17;;;8.50;62.90;;;11.51;49.39;99555.94;5013447;28;98266;-66
2021/05/04 04:44:07;;;;;;;0.10;0.10;;;8.50;62.90;;;11.51;49.47;99564.00;5010910;28;96716;-65
2021/05/04 04:46:41;;;;;;;0.00;0.00;;;8.50;62.90;;;11.52;49.45;99550.25;5007639;28;97757;-65
2021/05/04 04:49:11;;;;;;;0.10;0.10;;;8.60;62.90;;;11.56;48.89;99550.38;5009681;28;96837;-65
2021/05/04 04:51:40;;;;;;;1.23;0.93;;;8.60;63.00;;;11.49;49.24;99553.63;5010771;28;97381;-65
2021/05/04 04:54:08;;;;;;;3.33;1.13;;;8.60;62.90;;;11.47;49.55;99537.06;5010361;28;98075;-65
2021/05/04 04:56:37;;;;;;;0.05;0.05;;;8.50;62.90;;;11.42;49.97;99547.25;5009970;28;97665;-66
2021/05/04 04:59:06;;;;;;;0.20;0.20;;;8.50;62.90;;;11.39;49.94;99547.91;5009875;28;97813;-65
2021/05/04 05:01:35;;;;;;;0.10;0.10;;;8.50;63.00;;;11.33;49.35;99558.06;5026891;28;96891;-65
2021/05/04 05:04:06;;;;;;;2.72;0.50;;;8.50;63.10;;;11.34;50.05;99542.78;5006785;28;97289;-65
2021/05/04 05:06:35;;;;;;;0.17;0.17;;;8.50;63.10;;;11.35;49.82;99547.78;5008914;28;97300;-65
2021/05/04 05:09:07;;;;;;;0.70;0.47;;;8.40;63.00;;;11.34;49.40;99537.41;5013211;28;96807;-65
2021/05/04 05:11:35;;;;;;;0.33;0.33;;;8.40;63.10;;;11.32;49.72;99535.06;5008601;28;97159;-65
2021/05/04 05:14:08;;;;;;;1.85;0.45;;;8.40;63.20;;;11.32;49.34;99508.25;5008349;28;97370;-64
2021/05/04 05:16:37;;;;;;;0.20;0.20;;;8.40;63.20;;;11.33;49.60;99514.41;5010342;28;96797;-65
2021/05/04 05:19:06;;;;;;;0.00;0.00;;;8.40;63.20;;;11.33;49.87;99520.53;5011211;28;97015;-66
2021/05/04 05:21:37;;;;;;;0.45;0.45;;;8.40;63.20;;;11.28;49.80;99512.72;5007726;28;98227;-64
2021/05/04 05:24:08;;;;;;;0.20;0.20;;;8.40;63.30;;;11.30;49.99;99507.78;5010218;28;97748;-65
2021/05/04 05:26:36;;;;;;;0.20;0.20;;;8.40;63.90;;;11.27;49.48;99505.03;5012387;28;98214;-65
2021/05/04 05:29:06;;;;;;;2.72;0.63;;;8.40;63.40;;;11.28;49.89;99517.31;5015036;27;97087;-64
2021/05/04 05:31:36;;;;;;;0.32;0.32;;;8.30;63.30;;;11.27;49.69;99503.09;5008997;28;96977;-65
2021/05/04 05:34:04;;;;;;;0.00;0.00;;;8.30;63.30;;;11.11;50.53;99483.47;5011425;28;97824;-65
2021/05/04 05:36:32;;;;;;;0.10;0.10;;;8.30;63.40;;;11.08;50.71;99480.66;5026316;27;98566;-65
2021/05/04 05:39:00;;;;;;;0.00;0.00;;;8.30;63.40;;;11.22;50.36;99478.41;5010381;28;96840;-65
2021/05/04 05:41:30;;;;;;;0.10;0.10;;;8.30;63.50;;;11.26;49.77;99485.44;5007285;28;97032;-65
2021/05/04 05:43:58;;;;;;;0.03;0.03;;;8.30;63.50;;;11.26;49.86;99487.38;5009427;28;98094;-65
2021/05/04 05:46:30;;;;;;;0.60;0.52;;;8.30;63.50;;;11.24;50.08;99482.31;5007472;28;97834;-67
2021/05/04 05:48:59;;;;;;;0.20;0.20;;;8.30;63.50;;;11.25;49.98;99491.94;5009074;28;96691;-65
2021/05/04 05:51:48;;;;;;;0.88;0.88;;;8.30;63.40;;;11.28;50.16;99463.69;5008705;28;96795;-65
2021/05/04 05:54:16;;;;;;;0.10;0.10;;;8.30;63.50;;;11.24;50.35;99471.59;5025749;27;98414;-65
2021/05/04 05:56:44;;;;;;;0.45;0.45;;;8.40;63.50;;;11.21;50.59;99490.25;5010267;28;97150;-65
2021/05/04 05:59:12;;;;;;;0.00;0.00;;;8.40;63.50;;;11.21;50.12;99485.69;5007899;28;97585;-65
2021/05/04 06:01:40;;;;;;;0.10;0.10;;;8.40;63.50;;;11.23;50.10;99478.09;5007980;27;96734;-65
2021/05/04 06:04:09;;;;;;;0.08;0.08;;;8.40;63.50;;;11.28;50.28;99467.13;5010359;28;96836;-66
2021/05/04 06:06:37;;;;;;;0.38;0.38;;;8.40;63.60;;;11.29;50.21;99460.66;5024238;28;97750;-65
2021/05/04 06:09:04;;;;;;;0.30;0.30;;;8.40;63.50;;;11.31;50.04;99469.13;5008333;28;96778;-65
2021/05/04 06:11:32;;;;;;;0.17;0.17;;;8.40;63.50;;;11.37;50.35;99462.41;5006098;28;96933;-65
2021/05/04 06:14:00;;;;;;;0.30;0.30;;;8.50;63.60;;;11.41;49.76;99474.06;5009453;28;99550;-66
2021/05/04 06:16:30;;;;;;;0.10;0.10;;;8.50;63.60;;;11.47;50.04;99453.13;5010783;28;97678;-66
2021/05/04 06:18:58;;;;;;;0.10;0.10;;;8.50;63.60;;;11.50;50.03;99455.13;5004999;28;96738;-65
2021/05/04 06:21:30;;;;;;;0.57;0.57;;;8.50;63.60;;;11.45;49.90;99471.47;5006122;28;96777;-65
2021/05/04 06:23:58;;;;;;;0.20;0.20;;;8.50;63.60;;;11.45;49.98;99445.44;4988542;28;98820;-65
2021/05/04 06:26:25;;;;;;;0.03;0.03;;;8.60;63.60;;;11.46;50.38;99448.88;5007296;28;96791;-65
2021/05/04 06:28:53;;;;;;;0.32;0.32;;;8.60;63.60;;;11.46;50.64;99440.84;5007849;28;98158;-66
2021/05/04 06:31:21;;;;;;;0.10;0.10;;;8.60;63.50;;;11.53;50.35;99423.06;5001933;28;96933;-65
2021/05/04 06:34:06;;;;;;;0.20;0.20;;;8.60;63.60;;;11.57;50.35;99418.63;5006462;28;97920;-65
2021/05/04 06:36:34;;;;;;;0.00;0.00;;;8.70;63.70;;;11.63;50.26;99417.25;5023384;28;97880;-66
2021/05/04 06:39:05;;;;;;;0.10;0.10;;;8.60;63.50;;;11.66;49.99;99411.19;5007323;28;96897;-65
2021/05/04 06:41:35;;;;;;;0.17;0.17;;;8.70;63.60;;;11.74;49.93;99418.34;5016452;28;97368;-65
2021/05/04 06:44:06;;;;;;;0.10;0.10;;;8.70;63.60;;;11.77;49.54;99417.66;5011341;28;98070;-65
2021/05/04 06:46:34;;;;;;;0.65;0.55;;;8.70;63.60;;;11.85;50.12;99407.88;5009812;28;97099;-65
2021/05/04 06:49:07;;;;;;;0.20;0.20;;;8.80;63.70;;;11.86;50.15;99404.88;5014462;28;97151;-65
2021/05/04 06:51:36;;;;;;;;;;;8.80;63.70;;;11.87;50.14;99408.34;5013266;28;96925;-65
2021/05/04 06:54:05;;;;;;;0.30;0.30;;;8.80;63.80;;;11.91;49.55;99398.50;5013291;27;96922;-65
2021/05/04 06:56:32;;;;;;;3.03;0.38;;;8.90;63.70;;;11.93;50.17;99388.19;5009508;28;97096;-66
2021/05/04 06:59:00;;;;;;;0.10;0.10;;;8.90;63.60;;;11.99;49.51;99403.69;5009672;28;96808;-65
2021/05/04 07:01:29;;;;;;;0.08;0.08;;;8.90;63.60;;;12.04;50.05;99427.63;5014279;28;97063;-65
2021/05/04 07:03:57;;;;;;;1.95;0.30;;;9.00;63.70;;;12.04;50.19;99454.47;5010537;28;96945;-64
2021/05/04 07:06:25;;;;;;;0.10;0.10;;;9.00;63.60;;;12.01;49.79;99444.41;5014328;28;97472;-65
2021/05/04 07:08:54;;;;;;;0.10;0.10;;;9.00;63.50;;;11.72;50.38;99441.25;5029265;28;96788;-64
2021/05/04 07:11:22;;;;;;;0.10;0.10;;;9.00;63.00;;;11.50;50.50;99437.16;5014265;28;97128;-65
2021/05/04 07:13:50;;;;;;;0.00;0.00;;;8.80;63.00;;;11.27;51.07;99452.16;5008640;28;96898;-65
2021/05/04 07:16:17;;;;;;;0.10;0.10;;;8.70;63.10;;;11.10;51.12;99441.66;5014058;28;97757;-65
2021/05/04 07:18:45;;;;;;;0.35;0.35;;;8.50;63.30;;;11.04;51.02;99437.66;5009558;28;96874;-65
2021/05/04 07:21:13;;;;;;;0.10;0.10;;;8.40;63.60;;;11.01;51.17;99461.66;5018746;28;96711;-65
2021/05/04 07:23:41;;;;;;;0.20;0.20;;;8.30;63.80;;;10.99;51.03;99450.50;4996428;28;98830;-65
2021/05/04 07:26:13;;;;;;;0.00;0.00;;;8.30;64.00;;;11.02;50.83;99453.28;5010589;28;97915;-65
2021/05/04 07:28:41;;;;;;;0.00;0.00;;;8.20;64.10;;;11.02;50.94;99445.25;5011411;28;97283;-64
2021/05/04 07:31:08;;;;;;;0.00;0.00;;;8.20;64.20;;;11.09;51.07;99445.47;5009613;28;96804;-65
2021/05/04 07:33:36;;;;;;;0.38;0.38;;;8.20;64.20;;;11.04;50.82;99429.59;5009861;28;96888;-65
2021/05/04 07:36:07;;;;;;;0.50;0.50;;;8.20;64.30;;;11.04;50.96;99436.88;5011932;28;98082;-65
2021/05/04 07:38:35;;;;;;;0.00;0.00;;;8.20;64.20;;;11.09;50.99;99412.53;5011389;28;96878;-64
2021/05/04 07:41:05;;;;;;;0.00;0.00;;;8.20;64.30;;;11.17;51.00;99441.91;5028479;27;98623;-65
2021/05/04 07:43:34;;;;;;;0.00;0.00;;;8.20;64.30;;;11.19;50.74;99436.97;5009219;28;97996;-65
2021/05/04 07:46:05;;;;;;;0.10;0.10;;;8.20;64.20;;;11.22;50.88;99432.84;4992833;28;99730;-64
2021/05/04 07:48:32;;;;;;;1.60;0.60;;;8.20;64.20;;;11.24;50.31;99442.13;5010893;28;97208;-65
2021/05/04 07:51:04;;;;;;;0.10;0.10;;;8.20;64.30;;;11.29;50.50;99423.09;5013894;28;96860;-65
2021/05/04 07:53:32;;;;;;;0.08;0.08;;;8.30;64.30;;;11.43;50.15;99418.19;5008219;28;97180;-64
2021/05/04 07:56:03;;;;;;;0.00;0.00;;;8.30;64.40;;;11.58;49.73;99414.81;5009019;28;98213;-66
2021/05/04 07:58:31;;;;;;;0.00;0.00;;;8.40;64.40;;;11.79;50.05;99411.94;5012630;28;96652;-65
2021/05/04 08:01:00;;;;;;;0.22;0.22;;;8.50;64.50;;;11.96;49.41;99398.25;5009280;28;96709;-64
2021/05/04 08:03:30;;;;;;;0.10;0.10;;;8.60;64.50;;;12.16;49.08;99387.28;4987970;28;97874;-65
2021/05/04 08:05:57;;;;;;;0.10;0.10;;;8.70;64.50;;;12.35;49.71;99402.72;5011356;28;96797;-65
2021/05/04 08:08:25;;;;;;;0.10;0.10;;;8.90;64.50;;;12.38;49.28;99392.09;5009824;28;97312;-64
2021/05/04 08:10:53;;;;;;;2.05;0.80;;;9.00;64.30;;;12.43;49.64;99386.44;5013740;28;97125;-65
2021/05/04 08:13:21;;;;;;;0.10;0.10;;;9.10;64.20;;;12.48;49.59;99393.47;5011129;28;96907;-65
2021/05/04 08:15:51;;;;;;;0.08;0.08;;;9.20;64.20;;;12.53;49.67;99385.94;5008403;28;98494;-65
2021/05/04 08:18:20;;;;;;;0.35;0.35;;;9.30;64.20;;;12.66;49.22;99398.16;5010613;28;96976;-66
2021/05/04 08:20:53;;;;;;;0.10;0.10;;;9.30;64.10;;;12.76;49.23;99394.94;5011664;28;97093;-65
2021/05/04 08:23:24;;;;;;;0.20;0.20;;;9.40;64.00;;;12.79;49.30;99386.19;5011017;28;97872;-65
2021/05/04 08:25:52;;;;;;;3.72;0.73;;;9.50;63.90;;;12.85;49.51;99403.59;5009602;28;97686;-66
2021/05/04 08:28:20;;;;;;;0.63;0.63;;;9.60;63.90;;;12.87;49.52;99382.53;5010548;28;96767;-64
2021/05/04 08:30:50;;;;;;;0.50;0.50;;;9.70;63.80;;;12.88;49.79;99384.88;5010466;28;96987;-65
2021/05/04 08:33:19;;;;;;;0.20;0.20;;;9.70;63.70;;;12.94;49.82;99385.44;4990283;28;97951;-66
2021/05/04 08:35:47;;;;;;;0.22;0.22;;;9.80;63.80;;;13.14;49.62;99389.72;5023166;28;97175;-65
2021/05/04 08:38:15;;;;;;;0.03;0.03;;;9.80;63.80;;;13.18;49.49;99380.59;5007751;28;96864;-65
2021/05/04 08:40:44;;;;;;;1.15;0.73;;;9.90;63.90;;;13.29;49.42;99386.22;5009435;28;97080;-65
2021/05/04 08:43:12;;;;;;;0.65;0.65;;;10.00;63.80;;;13.36;49.28;99380.97;5008199;28;98037;-65
2021/05/04 08:45:45;;;;;;;0.00;0.00;;;10.10;63.80;;;13.41;49.73;99381.50;5005817;28;97209;-65
2021/05/04 08:48:15;;;;;;;1.58;1.25;;;10.20;63.80;;;13.42;49.63;99380.34;5005123;28;97290;-64
2021/05/04 08:50:44;;;;;;;0.10;0.10;;;10.20;63.60;;;13.45;49.69;99390.41;5008514;28;96908;-65
2021/05/04 08:53:26;;;;;;;0.00;0.00;;;10.30;63.60;;;13.66;49.38;99382.78;4976893;28;96776;-65
2021/05/04 08:55:54;;;;;;;0.28;0.28;;;10.40;63.70;;;13.98;48.99;99369.91;5009549;28;97757;-65
2021/05/04 08:58:21;;;;;;;0.30;0.25;;;10.50;63.90;;;14.11;49.04;99391.75;4989574;28;97198;-65
2021/05/04 09:01:10;;;;;;;1.88;0.20;;;10.70;63.90;;;14.32;49.05;99411.00;5007365;28;97080;-65
2021/05/04 09:03:42;;;;;;;0.03;0.03;;;10.90;63.50;;;14.15;49.41;99381.84;5002187;28;96957;-65
2021/05/04 09:06:15;;;;;;;0.55;0.47;;;11.00;63.90;;;14.11;49.91;99377.50;5009759;28;97700;-65
2021/05/04 09:08:48;;;;;;;0.00;0.00;;;11.00;63.10;;;14.37;49.57;99377.59;5010580;28;96854;-65
2021/05/04 09:11:32;;;;;;;0.05;0.05;;;11.10;63.30;;;15.00;49.24;99363.19;5012702;28;96970;-65
2021/05/04 09:14:10;;;;;;;0.05;0.05;;;11.40;63.80;;;15.64;47.78;99383.78;5007867;28;97646;-65
2021/05/04 09:16:47;;;;;;;0.17;0.17;;;11.70;63.70;;;15.89;47.42;99361.28;4993174;28;98126;-65
2021/05/04 09:19:38;;;;;;;0.68;0.68;;;12.00;63.40;;;16.01;47.66;99385.38;4992089;28;97347;-65
2021/05/04 09:22:07;;;;;;;0.08;0.08;;;12.20;63.30;;;16.04;47.92;99373.81;5007385;28;100562;-65
2021/05/04 09:24:41;;;;;;;0.15;0.15;;;12.40;63.00;;;16.08;48.67;99370.03;5008409;28;98031;-65
2021/05/04 09:27:12;;;;;;;0.20;0.13;;;12.50;63.00;;;16.09;48.76;99366.16;5008727;28;97677;-65
2021/05/04 09:29:44;;;;;;;0.10;0.10;;;12.60;63.00;;;16.11;48.66;99369.28;5009238;28;96960;-65
2021/05/04 09:32:18;;;;;;;0.50;0.20;;;12.70;63.00;;;16.05;48.92;99368.03;5008623;28;96966;-65
2021/05/04 09:34:54;;;;;;;1.17;0.30;;;12.70;62.90;;;16.11;49.38;99368.50;5005117;28;98005;-65
2021/05/04 09:37:36;;;;;;;2.20;1.17;;;12.80;63.00;;;16.21;49.76;99357.00;5009611;28;97883;-65
2021/05/04 09:40:26;;;;;;;0.10;0.10;;;12.90;63.00;;;16.08;49.16;99359.22;5008330;28;97262;-65
2021/05/04 09:43:11;;;;;;;1.30;0.63;;;12.90;62.90;;;15.97;49.66;99354.84;5005338;28;96881;-65
2021/05/04 09:45:43;;;;;;;0.03;0.03;;;12.90;63.00;;;16.06;49.78;99348.00;5009473;28;98468;-65
2021/05/04 09:48:23;;;;;;;0.20;0.10;;;12.90;63.10;;;16.01;49.96;99344.84;5007857;28;97496;-65
2021/05/04 09:51:01;;;;;;;0.43;0.43;;;12.90;63.10;;;15.99;50.24;99341.75;5004544;28;96871;-65
2021/05/04 09:53:39;;;;;;;0.70;0.57;;;12.90;63.00;;;15.76;50.05;99327.59;5010652;28;96775;-65
2021/05/04 09:56:10;;;;;;;0.15;0.15;;;12.80;63.00;;;15.57;50.52;99335.84;5010401;28;97853;-66
2021/05/04 09:58:41;;;;;;;0.32;0.32;;;12.70;63.10;;;15.28;51.25;99342.03;4974152;28;97625;-65
2021/05/04 10:01:14;;;;;;;0.88;0.88;;;12.60;63.10;;;15.09;51.04;99363.75;5022304;28;96911;-65
2021/05/04 10:03:45;;;;;;;0.77;0.57;;;12.40;63.30;;;14.84;51.42;99351.81;5010758;28;98586;-65
2021/05/04 10:06:15;;;;;;;0.10;0.10;;;12.30;63.30;;;14.54;51.80;99350.94;5008939;28;96834;-65
2021/05/04 10:08:46;;;;;;;0.10;0.10;;;12.10;63.40;;;14.31;52.01;99358.25;5012802;28;97999;-65
2021/05/04 10:11:18;;;;;;;0.00;0.00;;;11.80;63.60;;;14.23;52.18;99366.56;5010249;28;96848;-66
2021/05/04 10:13:52;;;;;;;0.85;0.30;;;11.70;64.00;;;14.23;51.94;99356.59;5009794;28;97466;-66
2021/05/04 10:16:24;;;;;;;0.13;0.13;;;11.50;64.30;;;14.14;51.88;99347.94;5010242;28;96880;-66
2021/05/04 10:18:57;;;;;;;0.08;0.08;;;11.40;64.50;;;14.26;51.65;99342.38;5008208;28;97791;-66
2021/05/04 10:21:25;;;;;;;0.17;0.17;;;11.40;64.60;;;14.24;51.38;99352.75;5025814;27;97476;-65
2021/05/04 10:23:55;;;;;;;0.08;0.08;;;11.40;64.60;;;14.21;51.60;99342.69;5010963;28;97000;-65
2021/05/04 10:26:27;;;;;;;0.00;0.00;;;11.30;64.60;;;14.21;51.46;99326.53;5008090;28;98004;-66
2021/05/04 10:29:07;;;;;;;0.17;0.17;;;11.30;64.70;;;14.02;50.95;99343.84;5007276;28;97666;-65
2021/05/04 10:31:37;;;;;;;1.13;1.02;;;11.20;64.40;;;13.86;51.41;99346.63;5006741;28;97877;-65
2021/05/04 10:34:32;;;;;;;0.93;0.47;;;11.10;64.40;;;13.70;52.16;99361.31;5008479;28;98082;-65